Time;durP1;ratioP1;P1;durP2;ratioP2;P2;SDS_P1;SDS_P2;PMS_P1;PMS_P2;Temp;Humidity;BMP_temperature;BMP_pressure;BME280_temperature;BME280_humidity;BME280_pressure;Samples;Min_cycle;Max_cycle;Signal;HPM_P1;HPM_P2
2024/01/15 00:01:49;;;;;;;30.70;18.65;;;;;;;3.15;78.76;100342.91;5027775;28;20404;-61
2024/01/15 00:04:15;;;;;;;28.42;17.48;;;;;;;3.15;79.14;100344.81;5028439;28;20504;-61
2024/01/15 00:06:40;;;;;;;26.75;17.27;;;;;;;3.14;79.02;100346.72;5028176;28;20034;-61
2024/01/15 00:09:06;;;;;;;28.20;17.15;;;;;;;3.15;79.01;100342.91;5018969;28;20021;-61
2024/01/15 00:11:32;;;;;;;29.27;18.10;;;;;;;3.12;78.86;100337.84;5010616;28;20026;-61
2024/01/15 00:13:57;;;;;;;30.10;18.10;;;;;;;3.11;79.06;100333.44;5010839;28;20045;-61
2024/01/15 00:16:22;;;;;;;29.27;17.73;;;;;;;3.12;79.28;100317.81;5059585;28;20030;-61
2024/01/15 00:18:48;;;;;;;28.02;17.75;;;;;;;3.11;79.14;100327.94;4992756;28;20023;-61
2024/01/15 00:21:13;;;;;;;28.27;16.80;;;;;;;3.14;79.14;100323.91;4992715;28;20395;-61
2024/01/15 00:23:43;;;;;;;25.98;16.27;;;;;;;3.11;79.22;100318.88;5002401;28;20032;-61
2024/01/15 00:26:08;;;;;;;23.35;15.10;;;;;;;3.08;79.23;100314.66;5023817;28;20117;-61
2024/01/15 00:28:33;;;;;;;27.33;16.02;;;;;;;3.13;79.30;100322.25;5011265;28;20109;-61
2024/01/15 00:30:58;;;;;;;23.75;15.32;;;;;;;3.12;78.57;100321.41;5012351;28;20049;-62
2024/01/15 00:33:24;;;;;;;24.73;14.93;;;;;;;3.08;78.84;100314.66;5011753;28;20038;-61
2024/01/15 00:35:49;;;;;;;24.08;14.85;;;;;;;3.07;79.21;100312.16;4998510;28;20034;-61
2024/01/15 00:38:14;;;;;;;20.20;13.25;;;;;;;3.06;78.69;100305.81;4992218;28;20401;-61
2024/01/15 00:40:40;;;;;;;21.75;13.20;;;;;;;3.05;78.76;100306.88;5001100;28;20029;-60
2024/01/15 00:43:07;;;;;;;21.98;12.43;;;;;;;3.06;79.14;100303.06;5030310;28;20522;-61
2024/01/15 00:45:32;;;;;;;22.98;12.32;;;;;;;3.09;78.92;100293.56;5024521;28;20484;-60
2024/01/15 00:48:01;;;;;;;15.32;10.30;;;;;;;3.06;78.51;100297.56;5011616;28;20025;-61
2024/01/15 00:50:26;;;;;;;18.58;9.88;;;;;;;3.08;79.43;100297.38;5008103;28;20037;-63
2024/01/15 00:52:51;;;;;;;14.00;9.07;;;;;;;3.06;78.60;100294.00;4996937;28;20362;-61
2024/01/15 00:55:17;;;;;;;13.60;8.07;;;;;;;3.08;78.77;100287.25;5011067;28;20092;-61
2024/01/15 00:57:42;;;;;;;11.25;6.20;;;;;;;3.07;78.92;100288.31;5010473;28;20038;-62
2024/01/15 01:00:09;;;;;;;8.10;5.75;;;;;;;3.08;78.72;100279.03;5011261;28;20030;-61
2024/01/15 01:02:34;;;;;;;8.45;5.60;;;;;;;3.08;78.55;100286.41;5011522;28;20132;-61
2024/01/15 01:04:59;;;;;;;10.23;4.72;;;;;;;3.07;78.82;100279.25;5009665;28;20481;-61
2024/01/15 01:07:24;;;;;;;5.55;3.50;;;;;;;3.08;78.92;100295.47;5010937;28;20782;-61
2024/01/15 01:09:51;;;;;;;6.53;3.30;;;;;;;3.10;79.01;100284.28;4999988;28;20027;-61
2024/01/15 01:12:16;;;;;;;4.78;2.88;;;;;;;3.08;78.61;100281.75;4999095;28;20030;-62
2024/01/15 01:14:42;;;;;;;4.05;2.50;;;;;;;3.09;78.98;100268.88;5008780;28;20034;-61
2024/01/15 01:17:07;;;;;;;7.03;2.20;;;;;;;3.08;78.50;100279.03;5011302;28;20036;-61
2024/01/15 01:19:32;;;;;;;5.10;1.95;;;;;;;3.08;78.67;100272.69;5010428;28;20037;-61
2024/01/15 01:21:58;;;;;;;4.15;2.10;;;;;;;3.10;79.00;100274.16;5011216;28;20071;-61
2024/01/15 01:24:23;;;;;;;2.50;1.75;;;;;;;3.07;79.07;100269.13;5010901;28;20124;-61
2024/01/15 01:26:49;;;;;;;4.07;1.95;;;;;;;3.06;78.79;100267.41;5017662;28;20039;-61
2024/01/15 01:29:14;;;;;;;5.43;1.63;;;;;;;3.09;79.00;100271.63;5077693;28;20374;-61
2024/01/15 01:31:46;;;;;;;3.63;1.95;;;;;;;3.10;78.63;100267.81;5053488;28;20024;-61
2024/01/15 01:34:15;;;;;;;4.13;1.80;;;;;;;3.08;79.22;100270.78;5112013;28;20028;-61
2024/01/15 01:36:40;;;;;;;2.70;1.48;;;;;;;3.07;78.48;100274.59;5005052;28;20068;-61
2024/01/15 01:39:06;;;;;;;3.95;1.88;;;;;;;3.10;78.42;100273.31;5009172;28;20058;-61
2024/01/15 01:41:31;;;;;;;3.65;1.73;;;;;;;3.07;78.83;100274.59;5010194;28;20066;-61
2024/01/15 01:43:56;;;;;;;5.60;1.80;;;;;;;3.07;79.08;100279.25;5005051;28;20052;-61
2024/01/15 01:46:23;;;;;;;2.95;1.75;;;;;;;3.06;78.52;100277.53;5012156;28;20507;-61
2024/01/15 01:48:48;;;;;;;4.18;1.65;;;;;;;3.06;78.89;100272.91;5014288;28;20045;-61
2024/01/15 01:51:14;;;;;;;3.03;1.70;;;;;;;3.04;78.45;100272.28;5010283;28;20369;-61
2024/01/15 01:53:40;;;;;;;3.05;2.03;;;;;;;3.03;79.07;100278.00;5009908;28;20034;-61
2024/01/15 01:56:07;;;;;;;4.82;2.22;;;;;;;3.02;78.30;100277.13;5010103;28;20366;-61
2024/01/15 01:58:33;;;;;;;4.68;2.00;;;;;;;3.02;79.10;100273.56;5010868;28;20057;-61
2024/01/15 02:00:58;;;;;;;3.58;1.88;;;;;;;3.03;78.69;100276.09;4997880;28;20041;-61
2024/01/15 02:03:24;;;;;;;4.47;1.90;;;;;;;3.04;78.43;100274.19;5017519;28;20022;-61
2024/01/15 02:05:51;;;;;;;4.60;1.98;;;;;;;3.03;78.73;100273.34;5010489;28;20033;-61
2024/01/15 02:08:16;;;;;;;3.33;1.80;;;;;;;3.01;78.39;100267.25;5009464;28;20036;-61
2024/01/15 02:10:41;;;;;;;3.47;1.60;;;;;;;3.02;79.00;100270.81;5010319;28;20038;-61
2024/01/15 02:13:07;;;;;;;3.67;1.95;;;;;;;3.02;78.13;100266.16;5010414;28;20038;-61
2024/01/15 02:15:32;;;;;;;6.00;2.13;;;;;;;3.01;78.93;100269.13;5008535;28;20544;-61
2024/01/15 02:18:05;;;;;;;4.80;2.00;;;;;;;3.02;78.71;100277.13;5006605;28;20034;-61
2024/01/15 02:20:31;;;;;;;5.05;1.83;;;;;;;3.02;78.63;100277.13;4994640;28;20482;-61
2024/01/15 02:23:11;;;;;;;6.82;2.45;;;;;;;3.05;78.82;100270.38;5008624;28;20082;-61
2024/01/15 02:25:41;;;;;;;5.25;1.88;;;;;;;3.05;78.12;100268.47;5010106;28;20081;-61
2024/01/15 02:28:09;;;;;;;5.05;1.92;;;;;;;3.03;78.57;100269.78;5008873;28;20366;-61
2024/01/15 02:30:39;;;;;;;4.28;1.90;;;;;;;3.01;78.01;100261.75;5016118;28;20034;-61
2024/01/15 02:33:04;;;;;;;4.57;1.60;;;;;;;2.98;78.41;100264.94;5008286;28;20038;-61
2024/01/15 02:35:29;;;;;;;5.35;1.70;;;;;;;3.00;78.27;100262.81;5017342;28;20476;-61
2024/01/15 02:37:55;;;;;;;4.80;1.80;;;;;;;2.99;77.85;100255.66;5049506;28;20030;-61
2024/01/15 02:40:20;;;;;;;4.45;1.80;;;;;;;2.98;78.18;100251.22;5009788;28;20067;-61
2024/01/15 02:42:45;;;;;;;5.47;1.92;;;;;;;2.98;77.44;100259.44;5008366;28;20042;-61
2024/01/15 02:45:11;;;;;;;4.80;1.50;;;;;;;2.99;77.58;100263.88;5017001;28;20025;-61
2024/01/15 02:47:36;;;;;;;6.00;1.85;;;;;;;3.01;77.92;100259.00;5029144;28;20033;-61
2024/01/15 02:50:01;;;;;;;2.83;1.60;;;;;;;2.97;77.52;100262.41;5017411;28;20052;-61
2024/01/15 02:52:26;;;;;;;3.75;1.70;;;;;;;2.96;78.09;100253.34;5005920;28;20117;-61
2024/01/15 02:54:52;;;;;;;5.35;1.70;;;;;;;2.98;77.52;100259.44;5009458;28;20046;-61
2024/01/15 02:57:17;;;;;;;4.38;1.67;;;;;;;2.95;77.63;100263.47;5008556;28;20030;-61
2024/01/15 02:59:42;;;;;;;2.70;1.65;;;;;;;2.98;77.53;100261.34;5012315;28;20116;-61
2024/01/15 03:02:08;;;;;;;8.93;2.22;;;;;;;2.93;77.85;100256.53;5010566;28;20496;-61
2024/01/15 03:04:33;;;;;;;5.97;1.92;;;;;;;2.94;77.69;100269.16;5008941;28;20055;-62
2024/01/15 03:06:58;;;;;;;7.95;1.73;;;;;;;2.92;78.00;100276.78;5008741;28;20091;-61
2024/01/15 03:09:23;;;;;;;5.20;1.52;;;;;;;2.92;77.89;100279.53;5009417;28;20030;-62
2024/01/15 03:11:49;;;;;;;7.10;1.70;;;;;;;2.89;77.77;100274.47;5006526;28;20062;-61
2024/01/15 03:14:14;;;;;;;4.28;1.80;;;;;;;2.89;78.02;100277.19;5008634;28;20459;-61
2024/01/15 03:16:40;;;;;;;5.82;2.10;;;;;;;2.86;77.61;100278.47;5009086;28;20033;-61
2024/01/15 03:19:05;;;;;;;6.03;1.70;;;;;;;2.87;77.69;100273.81;5008684;28;20046;-61
2024/01/15 03:21:30;;;;;;;3.97;1.83;;;;;;;2.87;78.19;100273.81;5009017;28;20106;-61
2024/01/15 03:23:55;;;;;;;5.18;1.88;;;;;;;2.84;77.96;100274.28;5009424;28;20058;-61
2024/01/15 03:26:21;;;;;;;5.50;1.95;;;;;;;2.83;77.88;100267.97;5008153;28;20026;-61
2024/01/15 03:28:46;;;;;;;7.70;1.95;;;;;;;2.85;77.93;100263.09;5005927;28;20033;-61
2024/01/15 03:31:11;;;;;;;7.38;2.08;;;;;;;2.85;77.96;100265.84;5009064;28;20099;-61
2024/01/15 03:33:36;;;;;;;5.38;1.80;;;;;;;2.85;77.91;100265.00;5021050;28;20037;-61
2024/01/15 03:36:02;;;;;;;4.68;1.90;;;;;;;2.85;77.94;100267.72;5010974;28;20050;-61
2024/01/15 03:38:28;;;;;;;6.82;2.00;;;;;;;2.85;78.26;100259.50;5002047;28;20477;-61
2024/01/15 03:40:53;;;;;;;3.88;1.80;;;;;;;2.84;78.16;100266.91;5009083;28;20030;-61
2024/01/15 03:43:19;;;;;;;4.68;2.17;;;;;;;2.83;78.36;100261.63;5008834;28;20048;-61
2024/01/15 03:45:44;;;;;;;9.65;1.92;;;;;;;2.87;78.42;100257.38;5007241;28;20374;-61
2024/01/15 03:48:09;;;;;;;5.13;1.65;;;;;;;2.88;78.47;100253.59;5007944;28;20076;-61
2024/01/15 03:50:34;;;;;;;5.00;1.80;;;;;;;2.87;78.00;100250.03;5008774;28;20038;-61
2024/01/15 03:53:00;;;;;;;6.03;2.10;;;;;;;2.86;78.60;100250.22;5009421;28;20255;-62
2024/01/15 03:55:25;;;;;;;5.50;1.73;;;;;;;2.86;78.30;100250.22;5033526;28;20022;-62
2024/01/15 03:57:50;;;;;;;8.80;1.95;;;;;;;2.89;78.61;100245.16;5011345;28;20057;-62
2024/01/15 04:00:17;;;;;;;7.88;2.45;;;;;;;2.90;78.86;100241.34;5005405;28;20473;-62
2024/01/15 04:02:43;;;;;;;6.93;2.08;;;;;;;2.90;78.25;100238.59;5027449;28;20086;-61
2024/01/15 04:05:09;;;;;;;4.75;2.13;;;;;;;2.89;78.89;100225.13;5008813;28;20082;-61
2024/01/15 04:07:34;;;;;;;5.50;2.03;;;;;;;2.93;78.31;100229.13;5007841;28;20671;-61
2024/01/15 04:09:59;;;;;;;8.38;2.92;;;;;;;2.90;78.59;100235.03;5008835;28;20026;-61
2024/01/15 04:12:25;;;;;;;6.40;2.10;;;;;;;2.94;78.49;100230.78;5008501;28;20051;-61
2024/01/15 04:14:50;;;;;;;7.50;2.03;;;;;;;2.91;78.92;100226.59;5006301;28;20092;-61
2024/01/15 04:17:16;;;;;;;6.90;1.92;;;;;;;2.95;78.77;100224.25;5011286;28;20033;-61
2024/01/15 04:19:43;;;;;;;11.38;2.58;;;;;;;2.93;79.22;100218.97;5026997;28;20084;-61
2024/01/15 04:22:09;;;;;;;8.15;2.53;;;;;;;2.94;78.93;100225.31;5015998;28;20041;-61
2024/01/15 04:24:34;;;;;;;4.07;1.80;;;;;;;2.98;78.93;100217.47;5008010;28;20046;-62
2024/01/15 04:27:00;;;;;;;6.68;2.03;;;;;;;2.97;78.60;100213.06;5008170;28;20025;-61
2024/01/15 04:29:25;;;;;;;6.53;2.05;;;;;;;2.98;78.87;100212.84;5006675;28;20786;-61
2024/01/15 04:31:51;;;;;;;4.32;2.08;;;;;;;2.98;78.52;100214.75;5020019;28;20078;-61
2024/01/15 04:34:16;;;;;;;6.72;2.03;;;;;;;2.98;78.21;100214.75;5023825;28;20370;-61
2024/01/15 04:36:42;;;;;;;3.72;1.70;;;;;;;2.98;78.62;100212.00;5029098;28;20045;-61
2024/01/15 04:39:07;;;;;;;3.97;1.45;;;;;;;2.95;78.50;100222.38;5005234;28;20032;-61
2024/01/15 04:41:33;;;;;;;3.40;1.60;;;;;;;2.92;78.42;100221.97;5001505;28;20034;-61
2024/01/15 04:44:00;;;;;;;4.78;1.50;;;;;;;2.91;78.42;100214.81;5013230;28;20057;-61
2024/01/15 04:46:25;;;;;;;3.08;1.60;;;;;;;2.92;78.19;100216.47;5011590;28;20040;-60
2024/01/15 04:48:50;;;;;;;2.85;1.30;;;;;;;2.87;78.17;100208.03;5008006;28;20038;-61
2024/01/15 04:51:16;;;;;;;1.75;1.20;;;;;;;2.86;78.47;100198.97;5012489;28;20128;-61
2024/01/15 04:53:41;;;;;;;3.25;1.42;;;;;;;2.87;77.97;100208.03;5003883;28;20141;-61
2024/01/15 04:56:06;;;;;;;1.50;1.40;;;;;;;2.87;77.77;100208.91;5011934;28;20469;-61
2024/01/15 04:58:32;;;;;;;2.90;1.60;;;;;;;2.82;78.11;100208.69;4990577;28;20500;-61
2024/01/15 05:00:57;;;;;;;2.30;1.60;;;;;;;2.85;78.08;100196.47;4991659;28;20038;-61
2024/01/15 05:03:22;;;;;;;3.45;1.27;;;;;;;2.85;78.27;100204.69;4990784;28;20812;-61
2024/01/15 05:05:48;;;;;;;3.35;1.27;;;;;;;2.81;78.00;100208.94;5017910;28;20060;-61
2024/01/15 05:08:13;;;;;;;2.35;1.40;;;;;;;2.82;77.78;100213.34;5033782;28;20042;-61
2024/01/15 05:10:38;;;;;;;1.92;1.20;;;;;;;2.83;78.25;100210.41;5046591;28;20030;-61
2024/01/15 05:13:03;;;;;;;1.20;1.10;;;;;;;2.84;78.28;100195.63;5008974;28;20034;-61
2024/01/15 05:15:29;;;;;;;2.55;1.30;;;;;;;2.83;78.08;100196.69;4991422;28;20222;-61
2024/01/15 05:17:55;;;;;;;3.10;1.45;;;;;;;2.83;77.62;100193.09;4990446;28;20079;-61
2024/01/15 05:20:20;;;;;;;1.33;1.23;;;;;;;2.83;77.73;100193.97;4991233;28;20488;-60
2024/01/15 05:22:45;;;;;;;3.63;1.40;;;;;;;2.80;77.73;100180.69;4991123;28;20034;-61
2024/01/15 05:25:11;;;;;;;3.28;1.88;;;;;;;2.84;78.36;100178.34;5006200;28;20128;-61
2024/01/15 05:27:36;;;;;;;2.85;1.85;;;;;;;2.82;78.40;100185.94;5031080;28;20038;-61
2024/01/15 05:30:01;;;;;;;2.47;1.60;;;;;;;2.82;78.13;100172.22;5018063;28;20014;-60
2024/01/15 05:32:27;;;;;;;2.78;1.52;;;;;;;2.81;78.43;100185.09;4994904;28;20109;-61
2024/01/15 05:34:52;;;;;;;2.55;1.90;;;;;;;2.80;77.77;100185.34;4991467;28;20031;-61
2024/01/15 05:37:17;;;;;;;3.10;1.83;;;;;;;2.82;77.89;100178.56;5003269;28;20434;-62
2024/01/15 05:39:42;;;;;;;2.47;1.58;;;;;;;2.79;78.17;100176.28;5030078;28;20029;-62
2024/01/15 05:42:08;;;;;;;5.40;1.85;;;;;;;2.83;78.31;100177.53;5020086;28;20133;-62
2024/01/15 05:44:33;;;;;;;3.13;1.77;;;;;;;2.83;78.32;100176.66;5010879;28;20030;-61
2024/01/15 05:46:58;;;;;;;4.35;2.22;;;;;;;2.83;78.59;100174.78;5012508;28;20029;-62
2024/01/15 05:49:24;;;;;;;4.30;2.10;;;;;;;2.84;78.71;100183.84;4995182;28;20034;-62
2024/01/15 05:51:49;;;;;;;6.65;2.13;;;;;;;2.85;78.21;100182.78;5001211;28;20102;-62
2024/01/15 05:54:14;;;;;;;5.10;1.83;;;;;;;2.84;78.68;100172.88;5029715;28;20063;-61
2024/01/15 05:56:40;;;;;;;6.00;1.98;;;;;;;2.84;78.72;100172.88;5026789;28;20465;-61
2024/01/15 05:59:05;;;;;;;8.45;2.17;;;;;;;2.82;78.36;100164.00;5015701;28;20030;-61
2024/01/15 06:01:30;;;;;;;7.50;1.75;;;;;;;2.84;79.11;100172.88;5002132;28;20389;-62
2024/01/15 06:03:55;;;;;;;4.30;1.90;;;;;;;2.83;78.25;100173.91;5012799;28;20030;-61
2024/01/15 06:06:21;;;;;;;5.10;2.40;;;;;;;2.83;78.42;100165.69;5006563;28;20095;-60
2024/01/15 06:08:46;;;;;;;6.38;3.30;;;;;;;2.85;78.68;100169.06;5014963;28;20041;-61
2024/01/15 06:11:11;;;;;;;7.32;2.75;;;;;;;2.85;78.39;100161.69;5009601;28;20175;-60
2024/01/15 06:13:37;;;;;;;7.47;2.63;;;;;;;2.85;78.84;100161.69;5009595;28;20030;-61
2024/01/15 06:16:02;;;;;;;5.90;2.30;;;;;;;2.84;78.99;100153.69;5016310;28;20053;-61
2024/01/15 06:18:27;;;;;;;6.43;2.13;;;;;;;2.86;78.61;100152.38;5029543;28;20037;-60
2024/01/15 06:20:53;;;;;;;4.82;2.15;;;;;;;2.86;78.98;100162.50;5024150;28;20092;-61
2024/01/15 06:23:18;;;;;;;4.72;1.92;;;;;;;2.85;78.55;100149.88;5010699;28;20037;-60
2024/01/15 06:25:43;;;;;;;7.55;2.53;;;;;;;2.84;78.49;100159.16;5028141;28;20056;-60
2024/01/15 06:28:09;;;;;;;4.68;2.28;;;;;;;2.85;78.98;100158.09;5019921;28;20029;-61
2024/01/15 06:30:35;;;;;;;4.13;2.15;;;;;;;2.85;78.51;100155.34;5021388;28;20023;-60
2024/01/15 06:33:00;;;;;;;3.45;2.00;;;;;;;2.86;79.05;100151.56;5054188;28;20029;-60
2024/01/15 06:35:25;;;;;;;3.47;2.08;;;;;;;2.88;79.30;100152.19;4993720;28;20030;-60
2024/01/15 06:37:50;;;;;;;4.82;2.03;;;;;;;2.90;79.31;100150.06;5030961;28;20384;-60
2024/01/15 06:40:16;;;;;;;3.50;1.70;;;;;;;2.85;78.85;100155.34;4990715;28;20037;-60
2024/01/15 06:42:41;;;;;;;2.05;1.60;;;;;;;2.84;78.83;100161.91;5011739;28;20030;-60
2024/01/15 06:45:07;;;;;;;3.05;1.67;;;;;;;2.82;78.61;100155.78;5021471;28;20502;-60
2024/01/15 06:47:32;;;;;;;2.65;1.70;;;;;;;2.81;79.59;100160.44;5019975;28;20031;-60
2024/01/15 06:49:58;;;;;;;1.83;1.70;;;;;;;2.81;78.92;100151.38;5023253;28;20026;-61
2024/01/15 06:52:24;;;;;;;1.95;1.75;;;;;;;2.77;78.74;100152.88;4990970;28;20030;-60
2024/01/15 06:54:49;;;;;;;3.53;1.77;;;;;;;2.76;78.17;100152.03;5025267;28;20049;-60
2024/01/15 06:57:14;;;;;;;1.90;1.80;;;;;;;2.76;78.09;100151.22;4990086;28;20394;-61
2024/01/15 06:59:40;;;;;;;1.83;1.67;;;;;;;2.73;78.08;100146.16;5026802;28;20106;-60
2024/01/15 07:02:06;;;;;;;2.47;1.80;;;;;;;2.73;78.75;100152.47;5021768;28;20473;-60
2024/01/15 07:04:31;;;;;;;2.03;1.90;;;;;;;2.74;78.56;100151.41;5112081;27;20119;-60
2024/01/15 07:06:56;;;;;;;1.85;1.70;;;;;;;2.75;78.87;100152.25;5015171;28;20038;-60
2024/01/15 07:09:22;;;;;;;2.08;1.88;;;;;;;2.78;78.74;100149.06;4996027;28;20034;-60
2024/01/15 07:11:48;;;;;;;2.70;1.98;;;;;;;2.73;78.19;100147.00;4989816;28;20030;-60
2024/01/15 07:14:13;;;;;;;2.10;1.90;;;;;;;2.74;78.63;100153.31;5012101;28;20124;-61
2024/01/15 07:16:39;;;;;;;2.35;2.05;;;;;;;2.71;78.73;100162.78;5025786;28;20096;-61
2024/01/15 07:19:05;;;;;;;2.20;2.00;;;;;;;2.69;78.61;100156.72;5010289;28;20034;-60
2024/01/15 07:21:30;;;;;;;2.83;2.10;;;;;;;2.67;78.72;100162.41;5004069;28;20030;-60
2024/01/15 07:23:55;;;;;;;2.20;2.10;;;;;;;2.72;79.05;100152.72;5011113;28;20111;-60
2024/01/15 07:26:21;;;;;;;2.00;1.90;;;;;;;2.68;78.52;100157.78;5011823;28;20039;-60
2024/01/15 07:28:46;;;;;;;2.35;2.10;;;;;;;2.67;78.25;100162.41;5001263;28;20103;-60
2024/01/15 07:31:12;;;;;;;2.45;2.05;;;;;;;2.69;78.53;100154.81;5001209;28;20060;-60
2024/01/15 07:33:37;;;;;;;2.10;2.00;;;;;;;2.73;78.54;100157.13;5004548;28;20478;-61
2024/01/15 07:36:03;;;;;;;2.10;2.00;;;;;;;2.70;79.07;100151.00;5018864;28;20079;-60
2024/01/15 07:38:28;;;;;;;2.75;2.30;;;;;;;2.69;78.43;100157.53;5020843;28;20061;-60
2024/01/15 07:40:53;;;;;;;3.03;2.72;;;;;;;2.69;78.77;100159.44;5013379;28;20058;-60
2024/01/15 07:43:19;;;;;;;2.80;2.60;;;;;;;2.72;77.99;100155.44;5007021;28;20053;-60
2024/01/15 07:45:45;;;;;;;3.25;2.60;;;;;;;2.76;78.24;100162.16;5003651;28;20033;-60
2024/01/15 07:48:10;;;;;;;3.30;3.10;;;;;;;2.71;78.63;100160.06;4994836;28;20545;-60
2024/01/15 07:50:35;;;;;;;4.03;3.67;;;;;;;2.72;78.04;100166.41;5013359;28;20136;-59
2024/01/15 07:53:01;;;;;;;4.03;3.67;;;;;;;2.72;78.81;100155.44;5008732;28;20041;-59
2024/01/15 07:55:26;;;;;;;5.72;2.88;;;;;;;2.72;78.73;100163.66;5013492;28;20048;-60
2024/01/15 07:57:53;;;;;;;4.07;3.60;;;;;;;2.71;78.20;100179.25;5010030;28;20022;-59
2024/01/15 08:00:19;;;;;;;4.35;3.78;;;;;;;2.71;78.39;100181.97;5023234;28;20068;-59
2024/01/15 08:02:44;;;;;;;3.85;3.55;;;;;;;2.74;78.51;100177.97;5013187;28;20116;-59
2024/01/15 08:05:09;;;;;;;5.45;4.28;;;;;;;2.76;77.87;100190.41;5010525;28;20078;-61
2024/01/15 08:07:34;;;;;;;4.60;4.20;;;;;;;2.77;78.17;100177.53;4997389;28;20492;-60
2024/01/15 08:10:00;;;;;;;4.80;4.40;;;;;;;2.77;78.40;100183.03;5008244;28;20017;-61
2024/01/15 08:12:25;;;;;;;4.43;4.03;;;;;;;2.78;78.42;100187.44;5025632;28;20041;-61
2024/01/15 08:14:50;;;;;;;5.28;4.35;;;;;;;2.79;78.68;100187.25;5018483;28;20648;-61
2024/01/15 08:17:16;;;;;;;4.28;3.97;;;;;;;2.81;78.23;100200.72;5014027;28;20030;-61
2024/01/15 08:19:41;;;;;;;4.28;3.97;;;;;;;2.77;77.78;100191.25;5011937;28;20539;-62
2024/01/15 08:22:07;;;;;;;5.28;4.47;;;;;;;2.79;78.16;100195.47;5005809;28;20037;-62
2024/01/15 08:24:32;;;;;;;3.97;3.67;;;;;;;2.78;77.62;100192.91;5007457;28;20034;-61
2024/01/15 08:26:57;;;;;;;3.67;3.35;;;;;;;2.77;77.88;100183.88;5018664;28;20789;-61
2024/01/15 08:29:24;;;;;;;3.38;3.08;;;;;;;2.77;78.48;100175.63;5010300;28;20385;-61
2024/01/15 08:31:49;;;;;;;5.30;2.80;;;;;;;2.79;78.29;100184.50;5018292;28;20025;-60
2024/01/15 08:34:15;;;;;;;2.88;2.67;;;;;;;2.82;78.38;100191.41;5005090;28;20049;-61
2024/01/15 08:36:40;;;;;;;3.00;2.80;;;;;;;2.78;78.13;100193.75;5011693;28;20029;-60
2024/01/15 08:39:06;;;;;;;2.58;2.38;;;;;;;2.79;78.40;100195.47;5034961;28;20861;-61
2024/01/15 08:41:33;;;;;;;3.78;2.47;;;;;;;2.80;77.92;100190.81;5019690;28;20038;-61
2024/01/15 08:43:58;;;;;;;2.47;2.17;;;;;;;2.78;78.42;100203.88;5004484;28;20060;-61
2024/01/15 08:46:24;;;;;;;3.47;1.90;;;;;;;2.79;78.92;100194.59;5015819;28;20034;-61
2024/01/15 08:48:49;;;;;;;2.45;1.92;;;;;;;2.79;78.56;100195.47;5011076;28;20079;-61
2024/01/15 08:51:15;;;;;;;2.30;1.77;;;;;;;2.78;78.42;100190.19;5019585;28;20041;-60
2024/01/15 08:53:40;;;;;;;3.65;2.00;;;;;;;2.79;77.80;100200.06;5022291;28;20070;-62
2024/01/15 08:56:05;;;;;;;2.20;1.80;;;;;;;2.80;78.45;100196.28;5010934;28;20033;-60
2024/01/15 08:58:31;;;;;;;3.05;1.90;;;;;;;2.80;78.43;100199.03;5011452;28;20034;-60
2024/01/15 09:00:56;;;;;;;2.15;1.65;;;;;;;2.81;78.09;100197.97;5016994;28;20770;-61
2024/01/15 09:03:21;;;;;;;5.47;1.75;;;;;;;2.83;78.58;100201.31;5025328;28;20079;-61
2024/01/15 09:05:48;;;;;;;4.45;1.75;;;;;;;2.82;78.25;100197.75;5028761;28;20523;-61
2024/01/15 09:08:13;;;;;;;2.33;1.52;;;;;;;2.82;78.34;100188.69;5011280;28;20180;-60
2024/01/15 09:10:39;;;;;;;3.15;1.85;;;;;;;2.82;77.56;100195.00;5025211;28;20493;-60
2024/01/15 09:13:04;;;;;;;3.25;1.90;;;;;;;2.83;77.99;100193.97;5017343;28;20542;-61
2024/01/15 09:15:29;;;;;;;2.75;1.70;;;;;;;2.81;77.60;100187.00;5029881;28;20032;-60
2024/01/15 09:17:57;;;;;;;3.55;1.50;;;;;;;2.81;77.76;100187.00;4995896;28;20064;-61
2024/01/15 09:20:22;;;;;;;5.57;1.60;;;;;;;2.79;77.24;100197.34;5020125;28;20033;-58
2024/01/15 09:22:47;;;;;;;3.60;1.77;;;;;;;2.79;77.89;100200.94;5021962;28;20036;-60
2024/01/15 09:25:13;;;;;;;4.05;1.60;;;;;;;2.84;78.69;100201.13;5021394;28;20033;-61
2024/01/15 09:27:39;;;;;;;5.82;1.70;;;;;;;2.89;78.10;100201.28;5060810;28;20038;-61
2024/01/15 09:30:05;;;;;;;5.28;1.83;;;;;;;3.01;77.80;100192.38;5007777;28;20116;-61
2024/01/15 09:32:30;;;;;;;6.22;2.15;;;;;;;3.00;78.15;100197.03;5007586;28;20041;-61
2024/01/15 09:34:55;;;;;;;3.50;1.60;;;;;;;3.01;77.79;100192.38;5019569;28;20496;-61
2024/01/15 09:37:21;;;;;;;1.80;1.52;;;;;;;3.00;77.75;100187.97;5016775;28;20081;-61
2024/01/15 09:39:48;;;;;;;4.43;1.90;;;;;;;2.99;77.31;100187.13;5018124;28;20354;-61
2024/01/15 09:42:14;;;;;;;4.07;1.80;;;;;;;2.98;77.00;100185.41;5022794;28;20462;-61
2024/01/15 09:44:39;;;;;;;4.20;1.85;;;;;;;2.95;77.20;100189.47;5026687;28;20033;-61
2024/01/15 09:47:05;;;;;;;3.83;1.80;;;;;;;2.94;77.39;100203.38;5009914;28;20719;-60
2024/01/15 09:49:30;;;;;;;3.55;1.65;;;;;;;2.93;76.93;100205.28;5024053;28;20408;-61
2024/01/15 09:51:58;;;;;;;3.78;1.73;;;;;;;2.92;76.78;100216.47;5040940;28;20030;-60
2024/01/15 09:54:23;;;;;;;5.97;1.88;;;;;;;2.92;77.38;100220.06;5022418;28;20033;-60
2024/01/15 09:56:49;;;;;;;5.15;1.90;;;;;;;2.93;77.43;100220.88;5026866;28;20037;-60
2024/01/15 09:59:18;;;;;;;3.28;1.77;;;;;;;2.93;77.42;100229.94;5046779;28;20496;-60
2024/01/15 10:01:45;;;;;;;3.03;1.95;;;;;;;2.96;77.44;100228.69;4998884;28;20034;-61
2024/01/15 10:04:14;;;;;;;4.05;1.80;;;;;;;2.96;77.12;100234.16;4996682;28;20034;-61
2024/01/15 10:06:43;;;;;;;4.05;1.90;;;;;;;2.95;77.42;100222.38;5011338;28;20057;-61
2024/01/15 10:09:09;;;;;;;3.95;1.92;;;;;;;3.02;77.62;100225.03;5017572;28;20385;-62
2024/01/15 10:11:34;;;;;;;6.88;2.10;;;;;;;3.20;77.75;100225.16;5021311;28;20030;-62
2024/01/15 10:14:00;;;;;;;2.50;2.10;;;;;;;3.26;77.25;100222.59;5014800;28;20041;-61
2024/01/15 10:16:26;;;;;;;2.97;1.98;;;;;;;3.24;76.67;100219.25;5017201;28;20034;-62
2024/01/15 10:18:51;;;;;;;4.32;1.83;;;;;;;3.34;77.44;100205.88;4996031;28;20022;-62
2024/01/15 10:21:17;;;;;;;6.13;2.10;;;;;;;3.53;77.21;100209.53;5014170;28;20460;-62
2024/01/15 10:23:42;;;;;;;5.05;2.33;;;;;;;3.69;76.56;100214.47;5011758;28;20029;-62
2024/01/15 10:26:07;;;;;;;6.22;2.42;;;;;;;3.77;76.15;100208.69;5010941;28;20113;-61
2024/01/15 10:28:33;;;;;;;4.35;2.17;;;;;;;3.87;75.97;100210.94;5020634;28;20028;-62
2024/01/15 10:30:59;;;;;;;4.47;2.17;;;;;;;3.94;75.87;100209.81;5027294;28;20034;-62
2024/01/15 10:33:30;;;;;;;3.55;2.30;;;;;;;4.02;75.33;100211.44;4996156;28;20034;-62
2024/01/15 10:35:59;;;;;;;4.47;2.10;;;;;;;4.12;75.34;100210.91;5015297;28;20059;-62
2024/01/15 10:38:25;;;;;;;5.65;2.15;;;;;;;4.29;75.39;100211.19;4998828;28;20027;-62
2024/01/15 10:40:52;;;;;;;5.13;2.45;;;;;;;4.36;74.33;100201.81;5000159;28;20078;-62
2024/01/15 10:43:17;;;;;;;4.50;1.98;;;;;;;4.27;74.13;100213.31;5010394;28;20093;-62
2024/01/15 10:45:45;;;;;;;3.22;1.83;;;;;;;4.17;73.98;100208.34;5071600;28;20487;-61
2024/01/15 10:48:10;;;;;;;4.05;2.22;;;;;;;4.29;74.96;100206.53;5028803;28;20038;-62
2024/01/15 10:50:36;;;;;;;5.38;2.03;;;;;;;4.35;75.22;100205.59;5023360;28;20022;-61
2024/01/15 10:53:02;;;;;;;4.25;2.05;;;;;;;4.52;74.88;100205.84;5009665;28;20084;-62
2024/01/15 10:55:29;;;;;;;4.60;2.30;;;;;;;4.64;74.64;100209.50;5020165;28;20026;-62
2024/01/15 10:57:56;;;;;;;2.95;2.00;;;;;;;4.65;74.38;100211.19;5013572;28;20017;-61
2024/01/15 11:00:22;;;;;;;5.97;2.00;;;;;;;4.58;74.18;100204.06;5015638;28;20056;-63
2024/01/15 11:02:47;;;;;;;5.10;2.03;;;;;;;4.53;73.88;100199.28;5002906;28;20048;-63
2024/01/15 11:05:18;;;;;;;4.05;1.95;;;;;;;4.50;73.62;100196.97;5023105;28;20057;-62
2024/01/15 11:07:43;;;;;;;6.72;1.88;;;;;;;4.41;73.29;100201.94;4989848;28;20401;-62
2024/01/15 11:10:40;;;;;;;5.07;2.08;;;;;;;4.42;74.17;100208.28;4989651;28;20027;-61
2024/01/15 11:13:07;;;;;;;3.20;1.90;;;;;;;4.43;73.96;100209.94;4997590;28;20606;-61
2024/01/15 11:15:59;;;;;;;4.45;1.60;;;;;;;4.51;74.88;100220.63;5013023;28;20025;-61
2024/01/15 11:18:36;;;;;;;2.80;1.80;;;;;;;4.52;73.67;100215.97;5022122;28;20124;-61
2024/01/15 11:21:19;;;;;;;2.65;1.63;;;;;;;4.53;74.18;100221.25;5051498;28;20076;-66
2024/01/15 11:23:46;;;;;;;4.28;1.92;;;;;;;4.50;74.05;100234.63;5010456;28;20044;-60
2024/01/15 11:26:46;;;;;;;3.58;1.77;;;;;;;4.43;73.86;100221.78;5019662;28;20021;-60